Time;durP1;ratioP1;P1;durP2;ratioP2;P2;SDS_P1;SDS_P2;PMS_P1;PMS_P2;Temp;Humidity;BMP_temperature;BMP_pressure;BME280_temperature;BME280_humidity;BME280_pressure;Samples;Min_cycle;Max_cycle;Signal;HPM_P1;HPM_P2
2022/05/15 00:01:49;;;;;;;1691.47;787.92;;;11.00;1.00;;;;;;5113409;28;20106;-80
2022/05/15 00:04:15;;;;;;;1731.97;789.55;;;9.70;1.00;;;;;;5113544;28;20495;-80
2022/05/15 00:06:40;;;;;;;1604.82;360.52;;;10.60;1.00;;;;;;5093992;28;20122;-80
2022/05/15 00:09:06;;;;;;;1999.90;999.90;;;9.70;1.00;;;;;;5113036;28;20449;-80
2022/05/15 00:11:32;;;;;;;1999.90;999.90;;;10.40;1.00;;;;;;5113505;28;20035;-81
2022/05/15 00:13:58;;;;;;;1786.38;793.47;;;10.50;1.00;;;;;;5113876;28;20048;-79
2022/05/15 00:16:25;;;;;;;645.75;135.00;;;9.70;1.00;;;;;;5113244;28;20047;-81
2022/05/15 00:18:50;;;;;;;1720.72;789.92;;;9.70;1.00;;;;;;5078098;28;20070;-79
2022/05/15 00:21:18;;;;;;;1999.90;999.90;;;9.70;1.00;;;;;;5078704;28;20067;-79
2022/05/15 00:23:44;;;;;;;1999.90;999.90;;;9.60;1.00;;;;;;5112743;28;20059;-78
2022/05/15 00:26:10;;;;;;;1574.13;772.53;;;9.60;1.00;;;;;;5113096;28;20039;-79
2022/05/15 00:28:36;;;;;;;1999.90;999.90;;;9.60;1.00;;;;;;5095027;28;20043;-81
2022/05/15 00:31:03;;;;;;;1999.90;999.90;;;9.50;1.00;;;;;;5113229;28;20066;-80
2022/05/15 00:33:29;;;;;;;1393.80;576.55;;;9.50;1.00;;;;;;5112818;28;20040;-80
2022/05/15 00:35:55;;;;;;;1999.90;999.90;;;9.50;1.00;;;;;;5110881;28;20113;-78
2022/05/15 00:38:21;;;;;;;656.45;130.88;;;9.40;1.00;;;;;;5133297;28;20043;-79
2022/05/15 00:40:48;;;;;;;1999.90;999.90;;;10.60;1.00;;;;;;5114253;28;20037;-79
2022/05/15 00:43:59;;;;;;;1728.60;610.10;;;10.40;1.00;;;;;;5131562;28;20097;-82
2022/05/15 00:46:34;;;;;;;1999.90;999.90;;;9.40;1.00;;;;;;5123406;28;20051;-79
2022/05/15 00:49:02;;;;;;;1701.22;781.08;;;9.60;1.00;;;;;;5111374;28;20126;-79
2022/05/15 00:51:40;;;;;;;1252.68;220.75;;;9.40;1.00;;;;;;5110175;28;20063;-79
2022/05/15 00:54:29;;;;;;;1270.30;444.10;;;9.40;1.00;;;;;;5132434;28;20059;-81
2022/05/15 00:57:01;;;;;;;1999.90;999.90;;;9.60;1.00;;;;;;5099494;28;20368;-82
2022/05/15 00:59:30;;;;;;;1286.40;557.63;;;9.40;1.00;;;;;;5135501;28;20038;-82
2022/05/15 01:01:55;;;;;;;1847.40;821.78;;;10.70;1.00;;;;;;5117076;28;20114;-79
2022/05/15 01:04:21;;;;;;;1698.90;782.28;;;9.40;1.00;;;;;;5134947;28;20055;-80
2022/05/15 01:06:47;;;;;;;1640.22;776.78;;;9.40;1.00;;;;;;5121512;28;20089;-79
2022/05/15 01:09:14;;;;;;;1999.90;999.90;;;10.20;1.00;;;;;;5076848;28;20040;-80
2022/05/15 01:11:42;;;;;;;1999.90;999.90;;;9.30;1.00;;;;;;5077627;28;20048;-81
2022/05/15 01:14:10;;;;;;;1999.90;999.90;;;10.50;1.00;;;;;;5112088;28;20062;-79
2022/05/15 01:16:37;;;;;;;1999.90;999.90;;;10.00;1.00;;;;;;5112239;28;20040;-79
2022/05/15 01:19:04;;;;;;;1999.90;999.90;;;9.30;1.00;;;;;;5111789;28;20126;-79
2022/05/15 01:21:33;;;;;;;1999.90;999.90;;;9.50;1.00;;;;;;5111969;28;20075;-79
2022/05/15 01:24:02;;;;;;;1999.90;999.90;;;9.60;1.00;;;;;;5093603;28;20078;-79
2022/05/15 01:26:28;;;;;;;1999.90;999.90;;;9.20;1.00;;;;;;5112503;28;20104;-79
2022/05/15 01:28:55;;;;;;;1999.90;999.90;;;9.10;1.00;;;;;;5093102;28;20126;-79
2022/05/15 01:31:20;;;;;;;1999.90;999.90;;;9.10;1.00;;;;;;5112623;28;20083;-79
2022/05/15 01:33:50;;;;;;;1999.90;999.90;;;9.10;1.00;;;;;;5111266;28;20078;-80
2022/05/15 01:36:18;;;;;;;1999.90;999.90;;;9.10;1.00;;;;;;5092801;28;20048;-80
2022/05/15 01:38:44;;;;;;;1999.90;999.90;;;9.10;1.00;;;;;;5111706;28;20100;-81
2022/05/15 01:41:12;;;;;;;1999.90;999.90;;;9.00;1.00;;;;;;5110255;28;20044;-80
2022/05/15 01:43:40;;;;;;;1999.90;999.90;;;9.00;1.00;;;;;;5111842;28;20544;-80
2022/05/15 01:46:06;;;;;;;1999.90;999.90;;;9.10;1.00;;;;;;5111244;28;20040;-80
2022/05/15 01:48:33;;;;;;;1999.90;999.90;;;9.00;1.00;;;;;;5093213;28;20151;-85
2022/05/15 01:50:58;;;;;;;1999.90;999.90;;;9.00;1.00;;;;;;5109643;28;20203;-83
2022/05/15 01:53:24;;;;;;;1999.90;999.90;;;9.00;1.00;;;;;;5093301;28;20138;-84
2022/05/15 01:55:52;;;;;;;1999.90;999.90;;;8.90;1.00;;;;;;5093498;28;20047;-86
2022/05/15 01:58:18;;;;;;;1999.90;999.90;;;10.60;1.00;;;;;;5093863;28;20059;-83
2022/05/15 02:00:44;;;;;;;1999.90;999.90;;;9.70;1.00;;;;;;5094316;28;20044;-84
2022/05/15 02:03:09;;;;;;;1999.90;999.90;;;8.90;1.00;;;;;;5076942;28;20043;-83
2022/05/15 02:05:35;;;;;;;1999.90;999.90;;;8.90;1.00;;;;;;5093259;28;20050;-83
2022/05/15 02:08:01;;;;;;;1999.90;999.90;;;8.80;1.00;;;;;;5093464;28;20043;-83
2022/05/15 02:10:27;;;;;;;1999.90;999.90;;;10.20;1.00;;;;;;5093511;28;20495;-84
2022/05/15 02:12:53;;;;;;;1999.90;999.90;;;9.00;1.00;;;;;;5092917;28;20056;-84
2022/05/15 02:15:18;;;;;;;1999.90;999.90;;;9.20;1.00;;;;;;5076708;28;20055;-84
2022/05/15 02:17:44;;;;;;;1999.90;999.90;;;8.80;1.00;;;;;;5111224;28;20480;-83
2022/05/15 02:20:11;;;;;;;1999.90;999.90;;;9.30;1.00;;;;;;5075960;28;20048;-83
2022/05/15 02:22:38;;;;;;;1999.90;999.90;;;8.80;1.00;;;;;;5092532;28;20376;-85
2022/05/15 02:25:06;;;;;;;1999.90;999.90;;;8.40;1.00;;;;;;5110145;28;20047;-84
2022/05/15 02:27:32;;;;;;;1999.90;999.90;;;8.60;1.00;;;;;;5076521;28;20540;-84
2022/05/15 02:29:59;;;;;;;1999.90;999.90;;;8.60;1.00;;;;;;5078069;28;20051;-84
2022/05/15 02:32:25;;;;;;;1999.90;999.90;;;9.70;1.00;;;;;;5047383;28;20504;-84
2022/05/15 02:34:50;;;;;;;1999.90;999.90;;;9.60;1.00;;;;;;5097219;28;20086;-87
2022/05/15 02:37:16;;;;;;;1999.90;999.90;;;8.40;1.00;;;;;;5097035;28;20043;-84
2022/05/15 02:39:42;;;;;;;1999.90;999.90;;;8.40;1.00;;;;;;5114101;28;20046;-83
2022/05/15 02:42:09;;;;;;;1999.90;999.90;;;8.40;1.00;;;;;;5094942;28;20050;-83
2022/05/15 02:44:34;;;;;;;1999.90;999.90;;;8.40;1.00;;;;;;5096775;28;20090;-83
2022/05/15 02:47:00;;;;;;;1999.90;999.90;;;8.90;1.00;;;;;;5115296;28;20078;-84
2022/05/15 02:52:10;;;;;;;1999.90;999.90;;;8.30;1.00;;;;;;5096249;28;20052;-84
2022/05/15 02:54:36;;;;;;;1999.90;999.90;;;8.40;1.00;;;;;;5096350;28;20121;-84
2022/05/15 02:57:05;;;;;;;1999.90;999.90;;;8.30;1.00;;;;;;5096288;28;20134;-83
2022/05/15 02:59:31;;;;;;;1999.90;999.90;;;8.20;1.00;;;;;;5115234;28;20048;-83
2022/05/15 03:01:57;;;;;;;1999.90;999.90;;;9.90;1.00;;;;;;5096735;28;20097;-83
2022/05/15 03:04:22;;;;;;;1999.90;999.90;;;9.40;1.00;;;;;;5115508;28;20075;-83
2022/05/15 03:06:48;;;;;;;1999.90;999.90;;;8.10;1.00;;;;;;5096836;28;20070;-82
2022/05/15 03:09:14;;;;;;;1999.90;999.90;;;8.10;1.00;;;;;;5063883;28;20095;-83
2022/05/15 03:11:39;;;;;;;1999.90;999.90;;;8.30;1.00;;;;;;5097697;28;20536;-83
2022/05/15 03:14:05;;;;;;;1999.90;999.90;;;8.20;1.00;;;;;;5095937;28;20118;-82
2022/05/15 03:16:31;;;;;;;1999.90;999.90;;;8.10;1.00;;;;;;5095649;28;20082;-83
2022/05/15 03:18:57;;;;;;;1999.90;999.90;;;8.00;1.00;;;;;;5095298;28;20051;-86
2022/05/15 03:21:28;;;;;;;1999.90;999.90;;;9.70;1.00;;;;;;5095926;28;20050;-83
2022/05/15 03:23:57;;;;;;;1999.90;999.90;;;8.30;1.00;;;;;;5078316;28;20048;-84
2022/05/15 03:26:23;;;;;;;1999.90;999.90;;;9.70;1.00;;;;;;5096347;28;20047;-82
2022/05/15 03:28:50;;;;;;;1999.90;999.90;;;9.50;1.00;;;;;;5095412;28;20050;-83
2022/05/15 03:31:16;;;;;;;1999.90;999.90;;;9.30;1.00;;;;;;5078413;28;20095;-83
2022/05/15 03:33:41;;;;;;;1999.90;999.90;;;8.60;1.00;;;;;;5095212;28;20039;-83
2022/05/15 03:36:13;;;;;;;1999.90;999.90;;;9.30;1.00;;;;;;5095160;28;20048;-87
2022/05/15 03:38:41;;;;;;;1999.90;999.90;;;9.10;1.00;;;;;;5079196;28;20376;-84
2022/05/15 03:41:07;;;;;;;;;;;8.50;1.00;;;;;;5112926;28;20056;-83
2022/05/15 03:43:37;;;;;;;1999.90;999.90;;;9.40;1.00;;;;;;5077724;28;19970;-84
2022/05/15 03:46:04;;;;;;;1999.90;999.90;;;7.50;1.00;;;;;;5095881;28;20191;-83
2022/05/15 03:48:30;;;;;;;1999.90;999.90;;;7.90;1.00;;;;;;5094888;28;20661;-83
2022/05/15 03:50:56;;;;;;;1999.90;999.90;;;8.10;1.00;;;;;;5113705;28;20130;-83
2022/05/15 03:53:24;;;;;;;1999.90;999.90;;;6.20;1.00;;;;;;5112806;28;20130;-84
2022/05/15 03:55:51;;;;;;;1999.90;999.90;;;7.90;1.00;;;;;;5094786;28;20113;-84
2022/05/15 03:58:17;;;;;;;1999.90;999.90;;;9.60;1.00;;;;;;5112508;28;20537;-83
2022/05/15 04:00:42;;;;;;;1999.90;999.90;;;7.90;1.00;;;;;;5078210;28;20100;-83
2022/05/15 04:03:08;;;;;;;1999.90;999.90;;;7.90;1.00;;;;;;5078053;28;20155;-83
2022/05/15 04:05:34;;;;;;;1999.90;999.90;;;9.10;1.00;;;;;;5078113;28;20056;-83
2022/05/15 04:08:00;;;;;;;1999.90;999.90;;;8.00;1.00;;;;;;5095654;28;20046;-83
2022/05/15 04:10:29;;;;;;;1999.90;999.90;;;8.10;1.00;;;;;;5094219;28;20048;-85
2022/05/15 04:12:54;;;;;;;1999.90;999.90;;;9.80;1.00;;;;;;5113090;28;20047;-84
2022/05/15 04:15:20;;;;;;;1999.90;999.90;;;8.10;1.00;;;;;;5111716;28;20680;-83
2022/05/15 04:17:52;;;;;;;1999.90;999.90;;;9.00;1.00;;;;;;5078510;28;20509;-83
2022/05/15 04:20:20;;;;;;;1264.53;546.88;;;9.20;1.00;;;;;;5094224;28;20055;-83
2022/05/15 04:22:46;;;;;;;1999.90;999.90;;;8.10;1.00;;;;;;5113289;28;20036;-83
2022/05/15 04:25:12;;;;;;;1999.90;999.90;;;8.80;1.00;;;;;;5094155;28;20047;-83
2022/05/15 04:27:39;;;;;;;1999.90;999.90;;;8.20;1.00;;;;;;5094521;28;20395;-83
2022/05/15 04:30:07;;;;;;;1999.90;999.90;;;9.70;1.00;;;;;;5112583;28;20039;-86
2022/05/15 04:32:33;;;;;;;1999.90;999.90;;;8.20;1.00;;;;;;5078787;28;20055;-83
2022/05/15 04:34:58;;;;;;;1999.90;999.90;;;8.30;1.00;;;;;;5077251;28;20050;-87
2022/05/15 04:37:24;;;;;;;1999.90;999.90;;;8.40;1.00;;;;;;5077213;28;20044;-84
2022/05/15 04:39:50;;;;;;;1999.90;999.90;;;8.40;1.00;;;;;;5094467;28;20476;-83
2022/05/15 04:42:16;;;;;;;1999.90;999.90;;;8.50;1.00;;;;;;5093690;28;20059;-86
2022/05/15 04:44:42;;;;;;;1778.07;806.15;;;8.70;1.00;;;;;;5113228;28;20073;-83
2022/05/15 04:47:07;;;;;;;1999.90;999.90;;;8.90;1.00;;;;;;5077938;28;20698;-87
2022/05/15 04:49:35;;;;;;;1999.90;999.90;;;8.70;1.00;;;;;;5094284;28;20044;-83
2022/05/15 04:52:01;;;;;;;;;;;8.80;1.00;;;;;;5094862;28;20087;-83
2022/05/15 04:54:27;;;;;;;1999.90;999.90;;;8.80;1.00;;;;;;5060408;28;20584;-85
2022/05/15 04:56:53;;;;;;;1733.53;790.90;;;;;;;;;;5093864;28;20472;-84
2022/05/15 04:59:19;;;;;;;1711.72;783.92;;;8.80;1.00;;;;;;5077185;28;20510;-83
2022/05/15 05:01:44;;;;;;;1999.90;999.90;;;8.90;1.00;;;;;;5112352;28;20044;-82
2022/05/15 05:04:10;;;;;;;1999.90;999.90;;;9.10;1.00;;;;;;5111625;28;20532;-85
2022/05/15 05:06:36;;;;;;;1941.95;820.67;;;9.10;1.00;;;;;;5077052;28;20075;-82
2022/05/15 05:09:02;;;;;;;1740.82;795.47;;;9.10;1.00;;;;;;5076869;28;20408;-83
2022/05/15 05:11:28;;;;;;;1966.93;421.25;;;9.20;1.00;;;;;;5077054;28;20484;-83
2022/05/15 05:13:54;;;;;;;1999.90;999.90;;;10.00;1.00;;;;;;5093857;28;20051;-84
2022/05/15 05:16:20;;;;;;;1721.03;787.13;;;9.30;1.00;;;;;;5076564;28;20051;-83
2022/05/15 05:18:46;;;;;;;1846.53;818.83;;;9.40;1.00;;;;;;5060022;28;20339;-83
2022/05/15 05:21:12;;;;;;;1788.55;799.47;;;9.40;1.00;;;;;;5111147;28;20051;-83
2022/05/15 05:23:38;;;;;;;1153.95;171.63;;;10.70;1.00;;;;;;5093403;28;20139;-82
2022/05/15 05:26:03;;;;;;;1999.90;999.90;;;9.50;1.00;;;;;;5112220;28;20480;-83
2022/05/15 05:28:30;;;;;;;1999.90;999.90;;;10.00;1.00;;;;;;5076580;28;20079;-83
2022/05/15 05:30:56;;;;;;;1796.47;804.47;;;9.90;1.00;;;;;;5112058;28;20043;-82
2022/05/15 05:33:22;;;;;;;1809.32;809.53;;;10.30;1.00;;;;;;5076511;28;20048;-82
2022/05/15 05:35:51;;;;;;;1769.25;793.65;;;9.80;1.00;;;;;;5092498;28;20448;-83
2022/05/15 05:38:20;;;;;;;1912.68;826.15;;;9.80;1.00;;;;;;5093067;28;20083;-83
2022/05/15 05:40:46;;;;;;;1560.15;620.13;;;10.70;1.00;;;;;;5110553;28;20126;-86
2022/05/15 05:43:12;;;;;;;1958.68;840.28;;;9.90;1.00;;;;;;5111166;28;20500;-86
2022/05/15 05:45:38;;;;;;;1999.90;999.90;;;10.00;1.00;;;;;;5075185;28;20047;-83
2022/05/15 05:48:04;;;;;;;730.17;130.35;;;11.30;1.00;;;;;;5111650;28;20046;-83
2022/05/15 05:50:32;;;;;;;1832.03;806.03;;;10.30;1.00;;;;;;5109104;28;20059;-83
2022/05/15 05:53:01;;;;;;;1758.95;791.47;;;10.30;1.00;;;;;;5093204;28;20138;-83
2022/05/15 05:55:27;;;;;;;1765.10;804.65;;;10.40;1.00;;;;;;5074998;28;20044;-83
2022/05/15 05:57:55;;;;;;;1999.90;999.90;;;10.50;1.00;;;;;;5076099;28;20059;-85
2022/05/15 06:00:37;;;;;;;1999.90;999.90;;;12.20;1.00;;;;;;5110911;28;20047;-83
2022/05/15 06:05:51;;;;;;;1782.07;814.03;;;12.00;1.00;;;;;;5091218;28;20373;-87
2022/05/15 06:08:18;;;;;;;1217.32;222.77;;;10.70;1.00;;;;;;5110047;28;20039;-84
2022/05/15 06:10:44;;;;;;;1840.93;322.98;;;10.80;1.00;;;;;;5110686;28;20100;-83
2022/05/15 06:13:10;;;;;;;1999.90;999.90;;;9.80;1.00;;;;;;5111554;28;20075;-83
2022/05/15 06:15:36;;;;;;;830.40;133.57;;;11.00;1.00;;;;;;5091614;28;20491;-84
2022/05/15 06:18:04;;;;;;;1882.43;832.95;;;11.10;1.00;;;;;;5093441;28;20051;-84
2022/05/15 06:20:30;;;;;;;1749.45;647.13;;;11.10;1.00;;;;;;5092523;28;20047;-84
2022/05/15 06:22:56;;;;;;;1999.90;999.90;;;11.30;1.00;;;;;;5093489;28;20050;-83
2022/05/15 06:25:23;;;;;;;1999.90;999.90;;;12.00;1.00;;;;;;5092036;28;20036;-84
2022/05/15 06:27:48;;;;;;;1296.20;352.20;;;11.50;1.00;;;;;;5075788;28;20063;-85
2022/05/15 06:30:16;;;;;;;1999.90;999.90;;;11.60;1.00;;;;;;5075078;28;20069;-83
2022/05/15 06:32:42;;;;;;;1999.90;999.90;;;11.70;1.00;;;;;;5092320;28;20078;-84
2022/05/15 06:35:09;;;;;;;1807.03;799.65;;;12.00;1.00;;;;;;5075443;28;20039;-84
2022/05/15 06:37:35;;;;;;;1333.23;479.67;;;12.00;1.00;;;;;;5074838;28;20052;-83
2022/05/15 06:40:06;;;;;;;1999.90;999.90;;;12.20;1.00;;;;;;5074752;28;20368;-83
2022/05/15 06:42:32;;;;;;;1999.90;999.90;;;12.30;1.00;;;;;;5074394;28;20484;-85
2022/05/15 06:44:58;;;;;;;1999.90;999.90;;;12.50;1.00;;;;;;5092385;28;20057;-84
2022/05/15 06:47:24;;;;;;;1999.90;999.90;;;14.00;1.00;;;;;;5091955;28;20036;-85
2022/05/15 06:49:50;;;;;;;1999.90;991.65;;;12.80;1.00;;;;;;5074651;28;20191;-85
2022/05/15 06:52:16;;;;;;;1999.90;999.90;;;12.90;1.00;;;;;;5088089;28;20060;-83
2022/05/15 06:54:42;;;;;;;1999.90;999.90;;;13.10;1.00;;;;;;5088159;28;20151;-83
2022/05/15 06:59:53;;;;;;;1999.90;999.90;;;13.40;1.00;;;;;;5089201;28;20568;-83
2022/05/15 07:02:19;;;;;;;1999.90;999.90;;;13.90;1.00;;;;;;5087997;28;20135;-85
2022/05/15 07:04:45;;;;;;;1674.82;999.90;;;15.40;1.00;;;;;;5071903;28;20063;-85
2022/05/15 07:07:11;;;;;;;1999.90;999.90;;;17.00;1.00;;;;;;5091198;28;20032;-84
2022/05/15 07:09:37;;;;;;;1466.53;999.90;;;18.70;1.00;;;;;;5088597;28;20040;-85
2022/05/15 07:12:04;;;;;;;634.30;580.03;;;19.40;99.90;;;;;;5090060;28;20495;-85
2022/05/15 07:14:30;;;;;;;988.65;888.88;;;21.40;99.90;;;;;;5090158;28;20043;-83
2022/05/15 07:16:56;;;;;;;860.00;785.05;;;21.70;99.90;;;;;;5095715;28;20368;-86
2022/05/15 07:19:22;;;;;;;839.63;771.28;;;22.10;99.90;;;;;;5095332;28;20112;-87
2022/05/15 07:21:47;;;;;;;778.63;719.20;;;22.80;99.90;;;;;;5093911;28;20059;-84
2022/05/15 07:24:13;;;;;;;510.08;470.55;;;23.60;99.90;;;;;;5075359;28;20040;-85
2022/05/15 07:26:44;;;;;;;554.97;512.60;;;24.30;99.90;;;;;;5093087;28;20044;-84
2022/05/15 07:29:10;;;;;;;745.05;689.65;;;24.80;99.90;;;;;;5092887;28;20101;-84
2022/05/15 07:31:35;;;;;;;621.78;572.95;;;25.50;99.90;;;;;;5075869;28;20047;-84
2022/05/15 07:34:01;;;;;;;404.00;377.55;;;26.00;99.90;;;;;;5092690;28;20131;-84
2022/05/15 07:36:27;;;;;;;314.52;293.80;;;26.70;99.90;;;;;;5092303;28;20570;-84
2022/05/15 07:38:52;;;;;;;455.73;425.30;;;27.20;99.90;;;;;;5092522;28;20047;-84
2022/05/15 07:41:18;;;;;;;247.10;231.70;;;27.70;99.90;;;;;;5074948;28;20113;-84
2022/05/15 07:43:44;;;;;;;462.38;432.63;;;28.10;99.90;;;;;;5075617;28;20054;-85
2022/05/15 07:46:13;;;;;;;733.47;679.53;;;28.00;99.90;;;;;;5076251;28;20048;-85
2022/05/15 07:48:39;;;;;;;718.17;664.67;;;27.70;99.90;;;;;;5075439;28;20052;-84
2022/05/15 07:51:05;;;;;;;721.20;666.88;;;27.70;99.90;;;;;;5059130;28;20346;-84
2022/05/15 07:53:31;;;;;;;680.60;634.65;;;27.50;99.90;;;;;;5074763;28;20109;-85
2022/05/15 07:55:59;;;;;;;710.17;659.30;;;28.10;99.90;;;;;;5074915;28;20052;-84
2022/05/15 07:58:25;;;;;;;679.20;630.10;;;28.40;99.90;;;;;;5091998;28;20105;-89
2022/05/15 08:00:53;;;;;;;782.17;720.22;;;29.00;99.90;;;;;;5076040;28;20055;-84
2022/05/15 08:03:20;;;;;;;824.47;760.00;;;28.80;99.90;;;;;;5092172;28;20044;-84
2022/05/15 08:08:30;;;;;;;925.15;847.33;;;29.80;99.90;;;;;;5077065;28;20051;-86
2022/05/15 08:10:56;;;;;;;900.00;829.40;;;30.20;99.90;;;;;;5091619;28;20044;-85
2022/05/15 08:13:28;;;;;;;898.78;828.67;;;30.70;99.90;;;;;;5091078;28;20400;-86
2022/05/15 08:15:54;;;;;;;917.70;844.30;;;30.40;99.90;;;;;;5092288;28;20048;-86
2022/05/15 08:23:51;;;;;;;602.55;558.20;;;31.00;99.90;;;;;;5090635;28;20082;-84
2022/05/15 08:26:17;;;;;;;705.95;652.70;;;30.50;99.90;;;;;;5091690;28;20052;-86
2022/05/15 08:28:43;;;;;;;562.15;522.47;;;30.40;99.90;;;;;;5091063;28;20381;-84
2022/05/15 08:31:09;;;;;;;733.35;673.92;;;29.10;99.90;;;;;;5092539;28;20040;-84
2022/05/15 08:33:37;;;;;;;533.38;496.95;;;28.80;99.90;;;;;;5090772;28;20040;-87
2022/05/15 08:36:05;;;;;;;950.58;870.63;;;29.10;99.90;;;;;;5075036;28;20145;-84
2022/05/15 08:38:31;;;;;;;717.00;663.58;;;29.70;99.90;;;;;;5074018;28;20128;-86
2022/05/15 08:41:02;;;;;;;736.27;682.23;;;30.10;99.90;;;;;;5073692;28;20055;-84
2022/05/15 08:43:43;;;;;;;620.63;577.28;;;30.40;99.90;;;;;;5074216;28;20055;-85
2022/05/15 08:46:44;;;;;;;668.38;622.58;;;30.60;99.90;;;;;;5090759;28;20079;-87
2022/05/15 08:49:20;;;;;;;581.97;542.90;;;30.90;99.90;;;;;;5073195;28;20048;-84
2022/05/15 08:52:01;;;;;;;598.35;558.08;;;32.00;99.90;;;;;;5089797;28;20441;-84
2022/05/15 08:54:28;;;;;;;736.33;684.15;;;31.70;99.90;;;;;;5090536;28;20044;-83
2022/05/15 08:56:55;;;;;;;565.10;526.63;;;32.50;99.90;;;;;;5091464;28;20054;-84
2022/05/15 08:59:28;;;;;;;578.15;538.53;;;32.70;99.90;;;;;;5072491;28;20048;-84
2022/05/15 09:01:56;;;;;;;515.55;480.58;;;32.90;99.90;;;;;;5089966;28;20115;-84
2022/05/15 09:04:27;;;;;;;498.85;464.63;;;31.90;99.90;;;;;;5090817;28;20048;-85
2022/05/15 09:07:37;;;;;;;463.25;431.95;;;32.40;99.90;;;;;;5073087;28;20113;-88
2022/05/15 09:10:11;;;;;;;704.35;652.13;;;31.50;99.90;;;;;;5018314;28;20059;-86
2022/05/15 09:12:37;;;;;;;481.20;449.00;;;32.20;99.90;;;;;;5073695;28;20051;-87
2022/05/15 09:15:11;;;;;;;688.75;633.00;;;32.80;99.90;;;;;;5073429;28;20048;-88
2022/05/15 09:17:49;;;;;;;447.10;418.08;;;33.50;99.90;;;;;;5089993;28;20105;-89
2022/05/15 09:20:40;;;;;;;479.58;447.38;;;34.00;99.90;;;;;;5092274;28;20055;-88
2022/05/15 09:23:29;;;;;;;413.02;385.48;;;34.00;99.90;;;;;;5073647;28;20097;-87
2022/05/15 09:26:01;;;;;;;794.92;727.17;;;33.10;99.90;;;;;;5073624;28;20130;-87
2022/05/15 09:28:28;;;;;;;509.92;470.92;;;33.80;99.90;;;;;;5090067;28;20048;-87
2022/05/15 09:31:06;;;;;;;459.45;428.73;;;34.00;99.90;;;;;;5089717;28;20100;-87
2022/05/15 09:33:52;;;;;;;;;;;34.50;99.90;;;;;;5090833;28;20047;-86
2022/05/15 09:36:42;;;;;;;395.63;366.00;;;33.10;99.90;;;;;;5071986;28;20104;-88
2022/05/15 09:39:27;;;;;;;398.50;372.83;;;33.50;99.90;;;;;;5089518;28;20047;-89
2022/05/15 09:45:26;;;;;;;398.60;372.42;;;32.90;99.90;;;;;;5090848;28;20059;-87
2022/05/15 09:47:51;;;;;;;394.23;367.63;;;33.20;99.90;;;;;;5091065;28;20079;-86
2022/05/15 09:50:40;;;;;;;399.42;373.13;;;34.00;99.90;;;;;;5093059;28;20126;-87
2022/05/15 09:53:07;;;;;;;;;;;34.00;99.90;;;;;;5094146;28;20047;-87
2022/05/15 09:55:33;;;;;;;285.75;267.20;;;34.00;99.90;;;;;;5092980;28;19923;-87
2022/05/15 09:58:03;;;;;;;577.75;528.55;;;33.90;99.90;;;;;;5092613;28;20101;-87
2022/05/15 10:00:34;;;;;;;392.77;366.35;;;34.90;99.90;;;;;;5092608;28;20159;-87
2022/05/15 10:03:15;;;;;;;264.25;246.90;;;35.10;99.90;;;;;;5076329;28;20051;-86
2022/05/15 10:05:41;;;;;;;308.92;287.92;;;35.50;99.90;;;;;;5092832;28;20125;-87
2022/05/15 10:08:23;;;;;;;312.97;290.33;;;35.50;99.90;;;;;;5111056;28;20410;-86
2022/05/15 10:10:58;;;;;;;204.38;190.45;;;36.00;99.90;;;;;;5075713;28;20348;-87
2022/05/15 10:13:50;;;;;;;228.38;212.45;;;35.50;99.90;;;;;;5075480;28;20047;-87
2022/05/15 10:16:29;;;;;;;217.07;202.32;;;35.10;99.90;;;;;;5076729;28;20259;-85
2022/05/15 10:19:17;;;;;;;197.38;183.80;;;35.90;99.90;;;;;;5091823;28;20141;-84
2022/05/15 10:21:50;;;;;;;406.65;377.17;;;36.50;99.90;;;;;;5075534;28;20465;-85
2022/05/15 10:24:21;;;;;;;259.55;241.48;;;36.60;99.90;;;;;;5091570;28;20097;-84
2022/05/15 10:27:04;;;;;;;225.05;209.15;;;36.50;99.90;;;;;;5076650;28;20086;-85
2022/05/15 10:29:54;;;;;;;444.35;408.75;;;36.50;99.90;;;;;;5092651;28;20373;-85
2022/05/15 10:32:23;;;;;;;234.77;218.07;;;35.90;99.90;;;;;;5076112;28;20059;-85
2022/05/15 10:34:49;;;;;;;275.73;255.77;;;36.30;99.90;;;;;;5091376;28;20044;-84
2022/05/15 10:37:31;;;;;;;311.40;287.05;;;36.70;99.90;;;;;;5076100;28;20075;-83
2022/05/15 10:40:18;;;;;;;246.82;228.65;;;36.30;99.90;;;;;;5075507;28;20051;-84
2022/05/15 10:42:57;;;;;;;409.15;372.73;;;35.70;99.90;;;;;;5109822;28;20047;-86
2022/05/15 10:45:48;;;;;;;383.75;354.55;;;34.10;99.90;;;;;;5093405;28;20059;-85
2022/05/15 10:48:29;;;;;;;230.95;214.25;;;33.40;99.90;;;;;;5092731;28;20056;-84
2022/05/15 10:51:49;;;;;;;209.60;195.55;;;34.30;99.90;;;;;;5093635;28;20056;-85
2022/05/15 10:57:21;;;;;;;201.70;185.75;;;36.10;99.90;;;;;;5088178;28;19941;-85
2022/05/15 11:00:11;;;;;;;207.32;192.23;;;37.30;99.90;;;;;;5096723;28;20482;-89
2022/05/15 11:02:51;;;;;;;246.90;226.88;;;37.20;99.90;;;;;;5080185;28;20055;-87
2022/05/15 11:05:43;;;;;;;303.85;276.60;;;37.30;99.90;;;;;;5115052;28;20075;-86
2022/05/15 11:08:37;;;;;;;276.95;253.63;;;37.50;99.90;;;;;;5090635;28;20059;-87
2022/05/15 11:11:24;;;;;;;569.50;520.30;;;37.80;99.90;;;;;;5105844;28;20396;-89
2022/05/15 11:14:12;;;;;;;259.30;238.40;;;36.70;99.90;;;;;;5085035;28;20043;-86
2022/05/15 11:17:00;;;;;;;374.10;342.08;;;36.60;99.90;;;;;;5089472;28;20081;-86
2022/05/15 11:19:39;;;;;;;308.48;284.42;;;36.60;99.90;;;;;;5104358;28;20051;-82
2022/05/15 11:22:31;;;;;;;325.45;298.63;;;36.60;99.90;;;;;;5103689;28;20093;-86
2022/05/15 11:24:59;;;;;;;251.18;230.05;;;36.70;99.90;;;;;;5085701;28;20138;-84
2022/05/15 11:27:41;;;;;;;261.65;241.02;;;35.10;99.90;;;;;;5099691;28;20525;-84
2022/05/15 11:30:35;;;;;;;174.52;163.05;;;35.40;99.90;;;;;;5086593;28;20074;-83
2022/05/15 11:33:06;;;;;;;166.52;155.45;;;35.80;99.90;;;;;;5087987;28;20063;-83
2022/05/15 11:35:41;;;;;;;255.05;234.88;;;36.50;99.90;;;;;;5086258;28;20087;-83
2022/05/15 11:38:19;;;;;;;223.57;208.20;;;37.00;99.90;;;;;;5078300;28;20078;-83
2022/05/15 11:40:49;;;;;;;179.25;167.48;;;36.80;99.90;;;;;;5082404;28;20487;-84
2022/05/15 11:43:28;;;;;;;349.65;319.58;;;36.70;99.90;;;;;;5078459;28;20171;-82
2022/05/15 11:45:58;;;;;;;191.18;178.77;;;36.50;99.90;;;;;;5078791;28;20059;-83
2022/05/15 11:48:29;;;;;;;370.73;342.73;;;36.40;99.90;;;;;;5095907;28;20124;-83
2022/05/15 11:51:25;;;;;;;270.77;252.60;;;35.30;99.90;;;;;;5094834;28;20056;-83
2022/05/15 11:53:55;;;;;;;475.85;432.58;;;34.90;99.90;;;;;;5101124;28;20105;-85
2022/05/15 11:56:40;;;;;;;281.05;259.55;;;34.60;99.90;;;;;;5095698;28;20054;-83
2022/05/15 11:59:28;;;;;;;368.77;337.17;;;34.70;99.90;;;;;;5094526;28;20039;-82
2022/05/15 12:01:58;;;;;;;236.55;221.23;;;35.20;99.90;;;;;;5094830;28;20078;-85
2022/05/15 12:04:36;;;;;;;301.70;279.85;;;35.60;99.90;;;;;;5095405;28;20057;-85
2022/05/15 12:07:08;;;;;;;366.88;337.58;;;36.20;99.90;;;;;;5094633;28;20552;-86
2022/05/15 12:09:39;;;;;;;370.48;341.45;;;36.80;99.90;;;;;;5077960;28;20047;-86
2022/05/15 12:12:20;;;;;;;639.83;579.92;;;36.80;99.90;;;;;;5078389;28;20099;-83
2022/05/15 12:15:06;;;;;;;448.45;412.50;;;36.80;99.90;;;;;;5077764;28;20139;-82
2022/05/15 12:17:35;;;;;;;318.55;294.17;;;36.20;99.90;;;;;;5027151;28;20569;-82
2022/05/15 12:20:15;;;;;;;302.17;280.63;;;35.70;99.90;;;;;;5112880;28;20059;-84
2022/05/15 12:23:10;;;;;;;326.80;304.98;;;35.60;99.90;;;;;;5095785;28;20095;-83
2022/05/15 12:25:58;;;;;;;691.97;624.47;;;35.00;99.90;;;;;;5093169;28;20146;-84
2022/05/15 12:31:36;;;;;;;623.22;573.05;;;33.00;99.90;;;;;;5094546;28;20113;-83
2022/05/15 12:34:31;;;;;;;460.13;428.60;;;31.60;99.90;;;;;;5093210;28;20094;-84
2022/05/15 12:37:01;;;;;;;447.60;413.58;;;30.40;99.90;;;;;;5095054;28;20495;-88
2022/05/15 12:39:34;;;;;;;1119.82;920.85;;;29.80;99.90;;;;;;5112772;28;20082;-84
2022/05/15 12:42:27;;;;;;;1136.50;984.35;;;29.20;99.90;;;;;;5093672;28;20043;-88
2022/05/15 12:45:01;;;;;;;740.35;669.55;;;28.70;99.90;;;;;;5077178;28;20476;-83
2022/05/15 12:47:32;;;;;;;948.38;853.47;;;28.00;99.90;;;;;;5077227;28;20445;-83
2022/05/15 12:50:24;;;;;;;943.08;845.13;;;27.50;99.90;;;;;;5112670;28;20059;-88
2022/05/15 12:52:55;;;;;;;931.78;842.63;;;27.30;99.90;;;;;;5078423;28;20055;-83
2022/05/15 12:55:26;;;;;;;897.75;818.67;;;27.10;99.90;;;;;;5092153;28;20040;-83
2022/05/15 12:57:55;;;;;;;1025.10;912.60;;;26.90;99.90;;;;;;5092020;28;20510;-83